sensor_id;sensor_type;location;lat;lon;timestamp;temperature;humidity
11748;DHT22;5931;48.832;9.072;2023-06-14T00:00:12;11.40;99.90
11748;DHT22;5931;48.832;9.072;2023-06-14T00:02:40;11.40;99.90
11748;DHT22;5931;48.832;9.072;2023-06-14T00:05:07;11.30;99.90
11748;DHT22;5931;48.832;9.072;2023-06-14T00:07:34;11.30;99.90
11748;DHT22;5931;48.832;9.072;2023-06-14T00:10:01;11.10;99.90
11748;DHT22;5931;48.832;9.072;2023-06-14T00:12:27;11.10;99.90
11748;DHT22;5931;48.832;9.072;2023-06-14T00:14:52;11.10;99.90
11748;DHT22;5931;48.832;9.072;2023-06-14T00:17:18;11.10;99.90
11748;DHT22;5931;48.832;9.072;2023-06-14T00:19:44;10.90;99.90
11748;DHT22;5931;48.832;9.072;2023-06-14T00:22:11;10.80;99.90
11748;DHT22;5931;48.832;9.072;2023-06-14T00:24:37;10.80;99.90
11748;DHT22;5931;48.832;9.072;2023-06-14T00:27:03;10.70;99.90
11748;DHT22;5931;48.832;9.072;2023-06-14T00:29:29;10.70;99.90
11748;DHT22;5931;48.832;9.072;2023-06-14T00:31:55;10.60;99.90
11748;DHT22;5931;48.832;9.072;2023-06-14T00:34:21;10.50;99.90
11748;DHT22;5931;48.832;9.072;2023-06-14T00:36:46;10.50;99.90
11748;DHT22;5931;48.832;9.072;2023-06-14T00:39:13;10.60;99.90
11748;DHT22;5931;48.832;9.072;2023-06-14T00:41:39;10.80;99.90
11748;DHT22;5931;48.832;9.072;2023-06-14T00:44:05;10.80;99.90
11748;DHT22;5931;48.832;9.072;2023-06-14T00:46:31;10.80;99.90
11748;DHT22;5931;48.832;9.072;2023-06-14T00:48:58;10.80;99.90
11748;DHT22;5931;48.832;9.072;2023-06-14T00:51:26;10.80;99.90
11748;DHT22;5931;48.832;9.072;2023-06-14T00:53:53;10.70;99.90
11748;DHT22;5931;48.832;9.072;2023-06-14T00:56:18;10.60;99.90
11748;DHT22;5931;48.832;9.072;2023-06-14T00:58:49;10.40;99.90
11748;DHT22;5931;48.832;9.072;2023-06-14T01:01:16;10.30;99.90
11748;DHT22;5931;48.832;9.072;2023-06-14T01:03:42;10.20;99.90
11748;DHT22;5931;48.832;9.072;2023-06-14T01:06:33;10.10;99.90
11748;DHT22;5931;48.832;9.072;2023-06-14T01:09:15;10.20;99.90
11748;DHT22;5931;48.832;9.072;2023-06-14T01:11:59;10.10;99.90
11748;DHT22;5931;48.832;9.072;2023-06-14T01:14:27;10.00;99.90
11748;DHT22;5931;48.832;9.072;2023-06-14T01:16:54;10.00;99.90
11748;DHT22;5931;48.832;9.072;2023-06-14T01:19:22;9.90;99.90
11748;DHT22;5931;48.832;9.072;2023-06-14T01:21:51;9.90;99.90
11748;DHT22;5931;48.832;9.072;2023-06-14T01:24:18;9.90;99.90
11748;DHT22;5931;48.832;9.072;2023-06-14T01:26:55;9.90;99.90
11748;DHT22;5931;48.832;9.072;2023-06-14T01:29:22;9.80;99.90
11748;DHT22;5931;48.832;9.072;2023-06-14T01:31:50;9.80;99.90
11748;DHT22;5931;48.832;9.072;2023-06-14T01:34:16;9.80;99.90
11748;DHT22;5931;48.832;9.072;2023-06-14T01:36:43;9.80;99.90
11748;DHT22;5931;48.832;9.072;2023-06-14T01:39:14;9.70;99.90
11748;DHT22;5931;48.832;9.072;2023-06-14T01:41:42;9.60;99.90
11748;DHT22;5931;48.832;9.072;2023-06-14T01:44:08;9.60;99.90
11748;DHT22;5931;48.832;9.072;2023-06-14T01:46:35;9.50;99.90
11748;DHT22;5931;48.832;9.072;2023-06-14T01:49:00;9.50;99.90
11748;DHT22;5931;48.832;9.072;2023-06-14T01:51:26;9.50;99.90
11748;DHT22;5931;48.832;9.072;2023-06-14T01:53:52;9.50;99.90
11748;DHT22;5931;48.832;9.072;2023-06-14T01:56:18;9.50;99.90
11748;DHT22;5931;48.832;9.072;2023-06-14T01:58:47;9.50;99.90
11748;DHT22;5931;48.832;9.072;2023-06-14T02:01:13;9.50;99.90
11748;DHT22;5931;48.832;9.072;2023-06-14T02:03:41;9.50;99.90
11748;DHT22;5931;48.832;9.072;2023-06-14T02:06:08;9.50;99.90
11748;DHT22;5931;48.832;9.072;2023-06-14T02:08:33;9.40;99.90
11748;DHT22;5931;48.832;9.072;2023-06-14T02:11:00;9.40;99.90
11748;DHT22;5931;48.832;9.072;2023-06-14T02:13:25;9.30;99.90
11748;DHT22;5931;48.832;9.072;2023-06-14T02:15:51;9.30;99.90
11748;DHT22;5931;48.832;9.072;2023-06-14T02:18:21;9.20;99.90
11748;DHT22;5931;48.832;9.072;2023-06-14T02:20:47;9.20;99.90
11748;DHT22;5931;48.832;9.072;2023-06-14T02:23:13;9.20;99.90
11748;DHT22;5931;48.832;9.072;2023-06-14T02:25:38;9.10;99.90
11748;DHT22;5931;48.832;9.072;2023-06-14T02:28:07;9.10;99.90
11748;DHT22;5931;48.832;9.072;2023-06-14T02:30:32;9.20;99.90
11748;DHT22;5931;48.832;9.072;2023-06-14T02:32:58;9.20;99.90
11748;DHT22;5931;48.832;9.072;2023-06-14T02:35:24;9.20;99.90
11748;DHT22;5931;48.832;9.072;2023-06-14T02:37:52;9.20;99.90
11748;DHT22;5931;48.832;9.072;2023-06-14T02:40:19;9.20;99.90
11748;DHT22;5931;48.832;9.072;2023-06-14T02:42:45;9.20;99.90
11748;DHT22;5931;48.832;9.072;2023-06-14T02:45:10;9.20;99.90
11748;DHT22;5931;48.832;9.072;2023-06-14T02:47:36;9.20;99.90
11748;DHT22;5931;48.832;9.072;2023-06-14T02:50:02;9.20;99.90
11748;DHT22;5931;48.832;9.072;2023-06-14T02:52:28;9.10;99.90
11748;DHT22;5931;48.832;9.072;2023-06-14T02:54:54;9.10;99.90
11748;DHT22;5931;48.832;9.072;2023-06-14T02:57:21;9.00;99.90
11748;DHT22;5931;48.832;9.072;2023-06-14T02:59:47;8.90;99.90
11748;DHT22;5931;48.832;9.072;2023-06-14T03:02:13;8.90;99.90
11748;DHT22;5931;48.832;9.072;2023-06-14T03:04:39;8.80;99.90
11748;DHT22;5931;48.832;9.072;2023-06-14T03:07:10;8.80;99.90
11748;DHT22;5931;48.832;9.072;2023-06-14T03:09:39;8.80;99.90
11748;DHT22;5931;48.832;9.072;2023-06-14T03:12:06;8.80;99.90
11748;DHT22;5931;48.832;9.072;2023-06-14T03:14:33;8.80;99.90
11748;DHT22;5931;48.832;9.072;2023-06-14T03:16:58;8.80;99.90
11748;DHT22;5931;48.832;9.072;2023-06-14T03:19:27;8.80;99.90
11748;DHT22;5931;48.832;9.072;2023-06-14T03:21:54;8.80;99.90
11748;DHT22;5931;48.832;9.072;2023-06-14T03:24:25;8.90;99.90
11748;DHT22;5931;48.832;9.072;2023-06-14T03:26:56;8.90;99.90
11748;DHT22;5931;48.832;9.072;2023-06-14T03:29:23;8.90;99.90
11748;DHT22;5931;48.832;9.072;2023-06-14T03:32:02;8.90;99.90
11748;DHT22;5931;48.832;9.072;2023-06-14T03:34:48;8.90;99.90
11748;DHT22;5931;48.832;9.072;2023-06-14T03:37:20;8.90;99.90
11748;DHT22;5931;48.832;9.072;2023-06-14T03:39:47;8.90;99.90
11748;DHT22;5931;48.832;9.072;2023-06-14T03:42:17;8.90;99.90
11748;DHT22;5931;48.832;9.072;2023-06-14T03:44:44;9.00;99.90
11748;DHT22;5931;48.832;9.072;2023-06-14T03:47:10;9.10;99.90
11748;DHT22;5931;48.832;9.072;2023-06-14T03:49:36;9.10;99.90
11748;DHT22;5931;48.832;9.072;2023-06-14T03:52:02;9.20;99.90
11748;DHT22;5931;48.832;9.072;2023-06-14T03:54:30;9.20;99.90
11748;DHT22;5931;48.832;9.072;2023-06-14T03:56:58;9.30;99.90
11748;DHT22;5931;48.832;9.072;2023-06-14T03:59:24;9.30;99.90
11748;DHT22;5931;48.832;9.072;2023-06-14T04:01:53;9.40;99.90
11748;DHT22;5931;48.832;9.072;2023-06-14T04:04:19;9.40;99.90
11748;DHT22;5931;48.832;9.072;2023-06-14T04:06:46;9.50;99.90
11748;DHT22;5931;48.832;9.072;2023-06-14T04:09:13;9.60;99.90
11748;DHT22;5931;48.832;9.072;2023-06-14T04:11:40;9.60;99.90
11748;DHT22;5931;48.832;9.072;2023-06-14T04:14:06;9.60;99.90
11748;DHT22;5931;48.832;9.072;2023-06-14T04:16:31;9.70;99.90
11748;DHT22;5931;48.832;9.072;2023-06-14T04:18:59;9.70;99.90
11748;DHT22;5931;48.832;9.072;2023-06-14T04:21:25;9.80;99.90
11748;DHT22;5931;48.832;9.072;2023-06-14T04:23:54;9.80;99.90
11748;DHT22;5931;48.832;9.072;2023-06-14T04:26:23;9.90;99.90
11748;DHT22;5931;48.832;9.072;2023-06-14T04:28:51;10.10;99.90
11748;DHT22;5931;48.832;9.072;2023-06-14T04:31:17;10.30;99.90
11748;DHT22;5931;48.832;9.072;2023-06-14T04:33:43;10.40;99.90
11748;DHT22;5931;48.832;9.072;2023-06-14T04:36:15;10.60;99.90
11748;DHT22;5931;48.832;9.072;2023-06-14T04:38:43;10.70;99.90
11748;DHT22;5931;48.832;9.072;2023-06-14T04:41:11;10.80;99.90
11748;DHT22;5931;48.832;9.072;2023-06-14T04:43:38;10.90;99.90
11748;DHT22;5931;48.832;9.072;2023-06-14T04:46:05;11.10;99.90
11748;DHT22;5931;48.832;9.072;2023-06-14T04:48:31;11.20;99.90
11748;DHT22;5931;48.832;9.072;2023-06-14T04:50:57;11.30;99.90
11748;DHT22;5931;48.832;9.072;2023-06-14T04:53:23;11.40;99.90
11748;DHT22;5931;48.832;9.072;2023-06-14T04:55:51;11.60;99.90
11748;DHT22;5931;48.832;9.072;2023-06-14T04:58:18;11.80;99.90
11748;DHT22;5931;48.832;9.072;2023-06-14T05:00:44;11.90;99.90
11748;DHT22;5931;48.832;9.072;2023-06-14T05:03:10;12.10;99.90
11748;DHT22;5931;48.832;9.072;2023-06-14T05:05:40;12.20;99.90
11748;DHT22;5931;48.832;9.072;2023-06-14T05:08:07;12.30;99.90
11748;DHT22;5931;48.832;9.072;2023-06-14T05:10:32;12.50;99.90
11748;DHT22;5931;48.832;9.072;2023-06-14T05:13:00;12.60;99.90
11748;DHT22;5931;48.832;9.072;2023-06-14T05:15:27;12.80;99.90
11748;DHT22;5931;48.832;9.072;2023-06-14T05:17:54;13.00;99.90
11748;DHT22;5931;48.832;9.072;2023-06-14T05:20:24;13.10;99.90
11748;DHT22;5931;48.832;9.072;2023-06-14T05:22:53;13.30;99.90
11748;DHT22;5931;48.832;9.072;2023-06-14T05:25:22;13.50;99.90
11748;DHT22;5931;48.832;9.072;2023-06-14T05:27:48;13.70;99.90
11748;DHT22;5931;48.832;9.072;2023-06-14T05:30:15;13.80;99.90
11748;DHT22;5931;48.832;9.072;2023-06-14T05:32:41;13.90;99.90
11748;DHT22;5931;48.832;9.072;2023-06-14T05:35:07;14.10;99.90
11748;DHT22;5931;48.832;9.072;2023-06-14T05:37:33;14.20;99.90
11748;DHT22;5931;48.832;9.072;2023-06-14T05:39:59;14.30;99.90
11748;DHT22;5931;48.832;9.072;2023-06-14T05:42:24;14.40;99.90
11748;DHT22;5931;48.832;9.072;2023-06-14T05:44:50;14.40;99.90
11748;DHT22;5931;48.832;9.072;2023-06-14T05:47:16;14.60;99.90
11748;DHT22;5931;48.832;9.072;2023-06-14T05:49:41;14.60;99.90
11748;DHT22;5931;48.832;9.072;2023-06-14T05:52:08;14.70;99.90
11748;DHT22;5931;48.832;9.072;2023-06-14T05:54:33;14.80;99.90
11748;DHT22;5931;48.832;9.072;2023-06-14T05:56:59;14.90;99.90
11748;DHT22;5931;48.832;9.072;2023-06-14T05:59:27;15.00;99.90
11748;DHT22;5931;48.832;9.072;2023-06-14T06:01:53;15.10;99.90
11748;DHT22;5931;48.832;9.072;2023-06-14T06:04:19;15.20;99.90
11748;DHT22;5931;48.832;9.072;2023-06-14T06:06:45;15.40;99.90
11748;DHT22;5931;48.832;9.072;2023-06-14T06:09:12;15.50;99.90
11748;DHT22;5931;48.832;9.072;2023-06-14T06:11:40;15.60;99.90
11748;DHT22;5931;48.832;9.072;2023-06-14T06:14:06;15.80;99.90
11748;DHT22;5931;48.832;9.072;2023-06-14T06:16:32;15.80;99.90
11748;DHT22;5931;48.832;9.072;2023-06-14T06:18:59;15.90;99.90
11748;DHT22;5931;48.832;9.072;2023-06-14T06:21:25;15.80;99.90
11748;DHT22;5931;48.832;9.072;2023-06-14T06:23:50;15.90;99.90
11748;DHT22;5931;48.832;9.072;2023-06-14T06:26:16;16.10;99.90
11748;DHT22;5931;48.832;9.072;2023-06-14T06:28:42;16.10;99.90
11748;DHT22;5931;48.832;9.072;2023-06-14T06:31:08;16.20;99.90
11748;DHT22;5931;48.832;9.072;2023-06-14T06:33:33;16.40;99.90
11748;DHT22;5931;48.832;9.072;2023-06-14T06:35:59;16.60;99.90
11748;DHT22;5931;48.832;9.072;2023-06-14T06:38:25;16.60;99.90
11748;DHT22;5931;48.832;9.072;2023-06-14T06:40:50;16.70;99.90
11748;DHT22;5931;48.832;9.072;2023-06-14T06:43:16;16.80;99.90
11748;DHT22;5931;48.832;9.072;2023-06-14T06:45:46;16.90;99.90
11748;DHT22;5931;48.832;9.072;2023-06-14T06:48:12;16.90;99.90
11748;DHT22;5931;48.832;9.072;2023-06-14T06:50:37;17.10;99.90
11748;DHT22;5931;48.832;9.072;2023-06-14T06:53:04;17.20;99.90
11748;DHT22;5931;48.832;9.072;2023-06-14T06:55:30;17.20;99.90
11748;DHT22;5931;48.832;9.072;2023-06-14T06:57:55;17.30;99.90
11748;DHT22;5931;48.832;9.072;2023-06-14T07:00:21;17.30;99.90
11748;DHT22;5931;48.832;9.072;2023-06-14T07:02:47;17.50;99.90
11748;DHT22;5931;48.832;9.072;2023-06-14T07:05:14;17.60;99.90
11748;DHT22;5931;48.832;9.072;2023-06-14T07:07:40;17.70;99.90
11748;DHT22;5931;48.832;9.072;2023-06-14T07:10:06;17.80;99.90
11748;DHT22;5931;48.832;9.072;2023-06-14T07:12:33;17.90;99.90
11748;DHT22;5931;48.832;9.072;2023-06-14T07:15:04;17.80;99.90
11748;DHT22;5931;48.832;9.072;2023-06-14T07:17:31;17.80;99.90
11748;DHT22;5931;48.832;9.072;2023-06-14T07:19:57;17.90;99.90
11748;DHT22;5931;48.832;9.072;2023-06-14T07:22:23;18.10;99.90
11748;DHT22;5931;48.832;9.072;2023-06-14T07:24:49;18.30;99.90
11748;DHT22;5931;48.832;9.072;2023-06-14T07:27:15;18.50;99.90
11748;DHT22;5931;48.832;9.072;2023-06-14T07:29:41;18.40;99.90
11748;DHT22;5931;48.832;9.072;2023-06-14T07:32:06;18.30;99.90
11748;DHT22;5931;48.832;9.072;2023-06-14T07:34:32;18.30;99.90
11748;DHT22;5931;48.832;9.072;2023-06-14T07:36:58;18.40;99.90
11748;DHT22;5931;48.832;9.072;2023-06-14T07:39:23;18.50;99.90
11748;DHT22;5931;48.832;9.072;2023-06-14T07:41:49;18.80;99.90
11748;DHT22;5931;48.832;9.072;2023-06-14T07:44:15;19.00;99.90
11748;DHT22;5931;48.832;9.072;2023-06-14T07:46:41;19.30;99.90
11748;DHT22;5931;48.832;9.072;2023-06-14T07:49:07;19.30;99.90
11748;DHT22;5931;48.832;9.072;2023-06-14T07:51:33;19.00;99.90
11748;DHT22;5931;48.832;9.072;2023-06-14T07:53:59;19.10;99.90
11748;DHT22;5931;48.832;9.072;2023-06-14T07:56:28;18.90;99.90
11748;DHT22;5931;48.832;9.072;2023-06-14T07:58:53;19.10;99.90
11748;DHT22;5931;48.832;9.072;2023-06-14T08:01:19;19.30;99.90
11748;DHT22;5931;48.832;9.072;2023-06-14T08:03:45;19.20;99.90
11748;DHT22;5931;48.832;9.072;2023-06-14T08:06:11;19.40;99.90
11748;DHT22;5931;48.832;9.072;2023-06-14T08:08:37;19.40;99.90
11748;DHT22;5931;48.832;9.072;2023-06-14T08:11:02;19.50;99.80
11748;DHT22;5931;48.832;9.072;2023-06-14T08:13:28;19.60;99.90
11748;DHT22;5931;48.832;9.072;2023-06-14T08:15:54;19.50;99.90
11748;DHT22;5931;48.832;9.072;2023-06-14T08:18:20;19.60;99.90
11748;DHT22;5931;48.832;9.072;2023-06-14T08:20:46;19.60;99.90
11748;DHT22;5931;48.832;9.072;2023-06-14T08:23:12;19.70;99.90
11748;DHT22;5931;48.832;9.072;2023-06-14T08:25:38;19.90;99.90
11748;DHT22;5931;48.832;9.072;2023-06-14T08:28:04;20.00;99.50
11748;DHT22;5931;48.832;9.072;2023-06-14T08:30:30;20.10;99.60
11748;DHT22;5931;48.832;9.072;2023-06-14T08:32:55;20.20;99.40
11748;DHT22;5931;48.832;9.072;2023-06-14T08:35:22;20.20;99.10
11748;DHT22;5931;48.832;9.072;2023-06-14T08:37:48;20.10;98.80
11748;DHT22;5931;48.832;9.072;2023-06-14T08:40:18;20.10;99.30
11748;DHT22;5931;48.832;9.072;2023-06-14T08:42:47;20.20;99.30
11748;DHT22;5931;48.832;9.072;2023-06-14T08:45:13;20.40;98.80
11748;DHT22;5931;48.832;9.072;2023-06-14T08:47:39;20.50;98.60
11748;DHT22;5931;48.832;9.072;2023-06-14T08:50:06;20.60;98.30
11748;DHT22;5931;48.832;9.072;2023-06-14T08:52:38;20.60;98.80
11748;DHT22;5931;48.832;9.072;2023-06-14T08:55:07;20.50;98.50
11748;DHT22;5931;48.832;9.072;2023-06-14T08:57:36;20.50;98.60
11748;DHT22;5931;48.832;9.072;2023-06-14T09:00:03;20.50;98.60
11748;DHT22;5931;48.832;9.072;2023-06-14T09:02:38;20.60;98.40
11748;DHT22;5931;48.832;9.072;2023-06-14T09:05:04;21.00;99.00
11748;DHT22;5931;48.832;9.072;2023-06-14T09:07:29;20.90;98.30
11748;DHT22;5931;48.832;9.072;2023-06-14T09:10:09;20.90;98.40
11748;DHT22;5931;48.832;9.072;2023-06-14T09:12:36;21.00;98.60
11748;DHT22;5931;48.832;9.072;2023-06-14T09:15:05;20.90;97.80
11748;DHT22;5931;48.832;9.072;2023-06-14T09:17:35;20.70;97.40
11748;DHT22;5931;48.832;9.072;2023-06-14T09:20:03;21.00;98.20
11748;DHT22;5931;48.832;9.072;2023-06-14T09:22:34;21.10;96.70
11748;DHT22;5931;48.832;9.072;2023-06-14T09:25:00;21.20;97.60
11748;DHT22;5931;48.832;9.072;2023-06-14T09:27:26;21.20;97.50
11748;DHT22;5931;48.832;9.072;2023-06-14T09:29:52;21.30;97.30
11748;DHT22;5931;48.832;9.072;2023-06-14T09:32:18;21.50;96.20
11748;DHT22;5931;48.832;9.072;2023-06-14T09:34:45;21.40;96.40
11748;DHT22;5931;48.832;9.072;2023-06-14T09:37:11;21.40;96.20
11748;DHT22;5931;48.832;9.072;2023-06-14T09:39:50;21.70;96.70
11748;DHT22;5931;48.832;9.072;2023-06-14T09:42:17;22.00;95.70
11748;DHT22;5931;48.832;9.072;2023-06-14T09:44:46;22.10;95.10
11748;DHT22;5931;48.832;9.072;2023-06-14T09:47:13;22.00;95.10
11748;DHT22;5931;48.832;9.072;2023-06-14T09:49:40;21.80;94.70
11748;DHT22;5931;48.832;9.072;2023-06-14T09:52:06;21.60;95.50
11748;DHT22;5931;48.832;9.072;2023-06-14T09:54:34;21.80;96.30
11748;DHT22;5931;48.832;9.072;2023-06-14T09:57:02;22.00;95.60
11748;DHT22;5931;48.832;9.072;2023-06-14T09:59:31;22.00;95.60
11748;DHT22;5931;48.832;9.072;2023-06-14T10:01:59;22.20;95.70
11748;DHT22;5931;48.832;9.072;2023-06-14T10:04:28;22.50;94.50
11748;DHT22;5931;48.832;9.072;2023-06-14T10:06:55;22.40;92.90
11748;DHT22;5931;48.832;9.072;2023-06-14T10:09:21;22.60;92.60
11748;DHT22;5931;48.832;9.072;2023-06-14T10:11:47;22.60;91.20
11748;DHT22;5931;48.832;9.072;2023-06-14T10:14:14;22.80;91.90
11748;DHT22;5931;48.832;9.072;2023-06-14T10:16:55;23.20;90.90
11748;DHT22;5931;48.832;9.072;2023-06-14T10:19:29;23.60;89.10
11748;DHT22;5931;48.832;9.072;2023-06-14T10:22:08;23.80;88.20
11748;DHT22;5931;48.832;9.072;2023-06-14T10:24:41;23.90;88.30
11748;DHT22;5931;48.832;9.072;2023-06-14T10:27:07;24.10;86.70
11748;DHT22;5931;48.832;9.072;2023-06-14T10:30:09;24.30;84.00
11748;DHT22;5931;48.832;9.072;2023-06-14T10:32:35;24.70;86.30
11748;DHT22;5931;48.832;9.072;2023-06-14T10:35:16;24.40;83.00
11748;DHT22;5931;48.832;9.072;2023-06-14T10:37:42;23.90;82.40
11748;DHT22;5931;48.832;9.072;2023-06-14T10:40:07;23.60;82.30
11748;DHT22;5931;48.832;9.072;2023-06-14T10:42:34;23.50;82.40
11748;DHT22;5931;48.832;9.072;2023-06-14T10:45:01;23.40;81.70
11748;DHT22;5931;48.832;9.072;2023-06-14T10:47:30;23.40;82.30
11748;DHT22;5931;48.832;9.072;2023-06-14T10:50:08;23.50;82.70
11748;DHT22;5931;48.832;9.072;2023-06-14T10:52:37;23.50;81.10
11748;DHT22;5931;48.832;9.072;2023-06-14T10:55:14;23.90;81.90
11748;DHT22;5931;48.832;9.072;2023-06-14T11:00:09;24.10;79.30
11748;DHT22;5931;48.832;9.072;2023-06-14T11:11:09;24.00;76.80
11748;DHT22;5931;48.832;9.072;2023-06-14T11:13:41;23.90;76.80
11748;DHT22;5931;48.832;9.072;2023-06-14T11:16:14;24.00;76.60
11748;DHT22;5931;48.832;9.072;2023-06-14T11:18:41;24.20;75.40
11748;DHT22;5931;48.832;9.072;2023-06-14T11:21:07;24.00;74.90
11748;DHT22;5931;48.832;9.072;2023-06-14T11:23:35;24.10;76.80
11748;DHT22;5931;48.832;9.072;2023-06-14T11:26:00;24.20;76.90
11748;DHT22;5931;48.832;9.072;2023-06-14T11:28:36;24.20;76.30
11748;DHT22;5931;48.832;9.072;2023-06-14T11:31:04;24.10;75.60
11748;DHT22;5931;48.832;9.072;2023-06-14T11:33:30;24.10;74.80
11748;DHT22;5931;48.832;9.072;2023-06-14T11:35:55;24.50;75.20
11748;DHT22;5931;48.832;9.072;2023-06-14T11:38:21;24.20;75.00
11748;DHT22;5931;48.832;9.072;2023-06-14T11:40:47;24.20;76.00
11748;DHT22;5931;48.832;9.072;2023-06-14T11:43:12;24.20;74.80
11748;DHT22;5931;48.832;9.072;2023-06-14T11:45:39;23.90;74.70
11748;DHT22;5931;48.832;9.072;2023-06-14T11:48:06;23.90;75.50
11748;DHT22;5931;48.832;9.072;2023-06-14T11:50:32;24.10;76.90
11748;DHT22;5931;48.832;9.072;2023-06-14T11:53:01;24.20;75.60
11748;DHT22;5931;48.832;9.072;2023-06-14T11:55:39;24.10;75.20
11748;DHT22;5931;48.832;9.072;2023-06-14T11:58:06;23.90;75.00
11748;DHT22;5931;48.832;9.072;2023-06-14T12:00:32;24.20;76.00
11748;DHT22;5931;48.832;9.072;2023-06-14T12:02:58;24.20;75.80
11748;DHT22;5931;48.832;9.072;2023-06-14T12:05:25;24.20;75.80
11748;DHT22;5931;48.832;9.072;2023-06-14T12:08:02;24.00;74.00
11748;DHT22;5931;48.832;9.072;2023-06-14T12:10:29;24.20;74.30
11748;DHT22;5931;48.832;9.072;2023-06-14T12:12:58;24.30;73.80
11748;DHT22;5931;48.832;9.072;2023-06-14T12:15:27;24.40;74.90
11748;DHT22;5931;48.832;9.072;2023-06-14T12:17:54;24.50;75.00
11748;DHT22;5931;48.832;9.072;2023-06-14T12:20:20;24.50;75.00
11748;DHT22;5931;48.832;9.072;2023-06-14T12:22:55;24.80;75.30
11748;DHT22;5931;48.832;9.072;2023-06-14T12:27:53;24.50;74.80
11748;DHT22;5931;48.832;9.072;2023-06-14T12:30:19;24.70;74.10
11748;DHT22;5931;48.832;9.072;2023-06-14T12:32:45;25.00;73.00
11748;DHT22;5931;48.832;9.072;2023-06-14T12:35:11;24.70;72.60
11748;DHT22;5931;48.832;9.072;2023-06-14T12:37:36;24.90;73.70
11748;DHT22;5931;48.832;9.072;2023-06-14T12:40:02;25.40;73.40
11748;DHT22;5931;48.832;9.072;2023-06-14T12:42:32;25.50;71.90
11748;DHT22;5931;48.832;9.072;2023-06-14T12:44:59;25.60;71.10
11748;DHT22;5931;48.832;9.072;2023-06-14T12:47:25;25.00;72.30
11748;DHT22;5931;48.832;9.072;2023-06-14T12:49:50;24.60;72.70
11748;DHT22;5931;48.832;9.072;2023-06-14T12:52:16;24.40;73.40
11748;DHT22;5931;48.832;9.072;2023-06-14T12:54:42;24.20;73.30
11748;DHT22;5931;48.832;9.072;2023-06-14T12:57:08;24.50;74.00
11748;DHT22;5931;48.832;9.072;2023-06-14T12:59:33;24.90;73.00
11748;DHT22;5931;48.832;9.072;2023-06-14T13:02:19;25.50;72.80
11748;DHT22;5931;48.832;9.072;2023-06-14T13:04:47;26.00;70.40
11748;DHT22;5931;48.832;9.072;2023-06-14T13:07:13;26.10;70.50
11748;DHT22;5931;48.832;9.072;2023-06-14T13:09:40;25.70;70.00
11748;DHT22;5931;48.832;9.072;2023-06-14T13:12:07;26.20;69.50
11748;DHT22;5931;48.832;9.072;2023-06-14T13:14:33;26.40;68.70
11748;DHT22;5931;48.832;9.072;2023-06-14T13:16:59;26.80;67.20
11748;DHT22;5931;48.832;9.072;2023-06-14T13:19:24;26.60;67.10
11748;DHT22;5931;48.832;9.072;2023-06-14T13:21:50;27.00;69.20
11748;DHT22;5931;48.832;9.072;2023-06-14T13:24:16;27.40;67.30
11748;DHT22;5931;48.832;9.072;2023-06-14T13:26:42;27.80;67.70
11748;DHT22;5931;48.832;9.072;2023-06-14T13:29:07;27.70;66.60
11748;DHT22;5931;48.832;9.072;2023-06-14T13:31:33;27.20;66.80
11748;DHT22;5931;48.832;9.072;2023-06-14T13:33:59;26.80;67.30
11748;DHT22;5931;48.832;9.072;2023-06-14T13:36:24;26.80;66.90
11748;DHT22;5931;48.832;9.072;2023-06-14T13:38:50;26.80;68.40
11748;DHT22;5931;48.832;9.072;2023-06-14T13:41:18;27.30;67.50
11748;DHT22;5931;48.832;9.072;2023-06-14T13:43:43;27.30;68.50
11748;DHT22;5931;48.832;9.072;2023-06-14T13:46:09;27.10;65.30
11748;DHT22;5931;48.832;9.072;2023-06-14T13:48:34;27.10;65.40
11748;DHT22;5931;48.832;9.072;2023-06-14T13:51:00;28.30;64.70
11748;DHT22;5931;48.832;9.072;2023-06-14T13:53:26;30.00;62.10
11748;DHT22;5931;48.832;9.072;2023-06-14T13:55:52;31.70;59.70
11748;DHT22;5931;48.832;9.072;2023-06-14T13:58:19;30.80;59.10
11748;DHT22;5931;48.832;9.072;2023-06-14T14:00:44;30.70;58.50
11748;DHT22;5931;48.832;9.072;2023-06-14T14:03:10;30.30;58.30
11748;DHT22;5931;48.832;9.072;2023-06-14T14:05:36;29.50;59.60
11748;DHT22;5931;48.832;9.072;2023-06-14T14:08:02;30.80;59.40
11748;DHT22;5931;48.832;9.072;2023-06-14T14:10:29;31.60;58.50
11748;DHT22;5931;48.832;9.072;2023-06-14T14:12:55;29.80;60.50
11748;DHT22;5931;48.832;9.072;2023-06-14T14:15:20;30.40;59.00
11748;DHT22;5931;48.832;9.072;2023-06-14T14:17:46;29.60;60.20
11748;DHT22;5931;48.832;9.072;2023-06-14T14:20:12;29.50;60.80
11748;DHT22;5931;48.832;9.072;2023-06-14T14:22:43;30.80;59.80
11748;DHT22;5931;48.832;9.072;2023-06-14T14:25:09;31.50;57.80
11748;DHT22;5931;48.832;9.072;2023-06-14T14:27:36;32.10;56.80
11748;DHT22;5931;48.832;9.072;2023-06-14T14:30:03;31.90;57.80
11748;DHT22;5931;48.832;9.072;2023-06-14T14:32:29;31.30;59.10
11748;DHT22;5931;48.832;9.072;2023-06-14T14:34:55;30.50;58.70
11748;DHT22;5931;48.832;9.072;2023-06-14T14:37:20;28.40;61.00
11748;DHT22;5931;48.832;9.072;2023-06-14T14:39:46;27.00;64.70
11748;DHT22;5931;48.832;9.072;2023-06-14T14:42:12;25.80;67.20
11748;DHT22;5931;48.832;9.072;2023-06-14T14:44:38;25.40;68.30
11748;DHT22;5931;48.832;9.072;2023-06-14T14:47:05;24.80;69.30
11748;DHT22;5931;48.832;9.072;2023-06-14T14:49:32;24.80;70.50
11748;DHT22;5931;48.832;9.072;2023-06-14T14:51:57;25.20;69.10
11748;DHT22;5931;48.832;9.072;2023-06-14T14:54:23;25.60;67.10
11748;DHT22;5931;48.832;9.072;2023-06-14T14:56:50;26.40;66.30
11748;DHT22;5931;48.832;9.072;2023-06-14T14:59:16;26.00;67.20
11748;DHT22;5931;48.832;9.072;2023-06-14T15:01:42;25.10;67.70
11748;DHT22;5931;48.832;9.072;2023-06-14T15:04:08;24.70;69.40
11748;DHT22;5931;48.832;9.072;2023-06-14T15:06:34;24.50;69.20
11748;DHT22;5931;48.832;9.072;2023-06-14T15:09:01;24.60;69.30
11748;DHT22;5931;48.832;9.072;2023-06-14T15:11:27;24.80;70.40
11748;DHT22;5931;48.832;9.072;2023-06-14T15:13:52;25.00;68.90
11748;DHT22;5931;48.832;9.072;2023-06-14T15:16:19;25.00;68.30
11748;DHT22;5931;48.832;9.072;2023-06-14T15:18:45;25.00;68.20
11748;DHT22;5931;48.832;9.072;2023-06-14T15:21:12;25.10;68.60
11748;DHT22;5931;48.832;9.072;2023-06-14T15:23:38;25.40;68.50
11748;DHT22;5931;48.832;9.072;2023-06-14T15:26:04;25.60;67.60
11748;DHT22;5931;48.832;9.072;2023-06-14T15:28:29;25.70;67.60
11748;DHT22;5931;48.832;9.072;2023-06-14T15:30:55;25.40;66.50
11748;DHT22;5931;48.832;9.072;2023-06-14T15:33:22;25.00;68.00
11748;DHT22;5931;48.832;9.072;2023-06-14T15:35:47;24.70;68.00
11748;DHT22;5931;48.832;9.072;2023-06-14T15:38:13;24.50;68.40
11748;DHT22;5931;48.832;9.072;2023-06-14T15:40:39;24.50;69.30
11748;DHT22;5931;48.832;9.072;2023-06-14T15:43:05;24.70;69.30
11748;DHT22;5931;48.832;9.072;2023-06-14T15:45:30;24.60;69.20
11748;DHT22;5931;48.832;9.072;2023-06-14T15:47:57;24.50;69.60
11748;DHT22;5931;48.832;9.072;2023-06-14T15:50:23;24.40;69.90
11748;DHT22;5931;48.832;9.072;2023-06-14T15:52:48;24.30;70.00
11748;DHT22;5931;48.832;9.072;2023-06-14T15:55:14;24.30;69.90
11748;DHT22;5931;48.832;9.072;2023-06-14T15:57:40;24.20;70.20
11748;DHT22;5931;48.832;9.072;2023-06-14T16:00:06;24.20;70.30
11748;DHT22;5931;48.832;9.072;2023-06-14T16:02:32;24.60;70.00